createdAt,value
2019-01-21T00:00:53.468Z,-7.42
2019-01-21T00:03:21.146Z,-7.43
2019-01-21T00:05:48.646Z,-7.25
2019-01-21T00:08:16.110Z,-7.15
2019-01-21T00:10:43.521Z,-7.14
2019-01-21T00:13:10.980Z,-7.10
2019-01-21T00:15:38.460Z,-7.13
2019-01-21T00:18:06.070Z,-7.27
2019-01-21T00:20:33.552Z,-7.47
2019-01-21T00:23:02.450Z,-7.45
2019-01-21T00:25:30.130Z,-7.47
2019-01-21T00:27:57.551Z,-7.28
2019-01-21T00:30:25.035Z,-7.26
2019-01-21T00:32:52.461Z,-7.29
2019-01-21T00:35:19.943Z,-7.25
2019-01-21T00:37:47.341Z,-7.16
2019-01-21T00:40:15.010Z,-7.12
2019-01-21T00:42:42.431Z,-7.17
2019-01-21T00:45:10.005Z,-7.39
2019-01-21T00:47:37.426Z,-7.45
2019-01-21T00:50:05.440Z,-7.52
2019-01-21T00:52:32.848Z,-7.62
2019-01-21T00:55:00.277Z,-7.56
2019-01-21T00:57:27.671Z,-7.08
2019-01-21T00:59:55.101Z,-7.08
2019-01-21T01:02:22.647Z,-7.09
2019-01-21T01:04:50.142Z,-7.19
2019-01-21T01:07:17.636Z,-7.29
2019-01-21T01:09:45.100Z,-7.24
2019-01-21T01:12:12.500Z,-7.09
2019-01-21T01:14:40.000Z,-7.22
2019-01-21T01:17:07.406Z,-7.15
2019-01-21T01:19:34.826Z,-7.17
2019-01-21T01:22:02.230Z,-7.08
2019-01-21T01:24:29.631Z,-7.03
2019-01-21T01:26:57.375Z,-7.03
2019-01-21T01:29:28.071Z,-7.00
2019-01-21T01:31:55.526Z,-6.97
2019-01-21T01:34:22.966Z,-6.95
2019-01-21T01:36:50.457Z,-7.02
2019-01-21T01:39:17.867Z,-6.93
2019-01-21T01:41:45.721Z,-6.95
2019-01-21T01:44:13.127Z,-7.10
2019-01-21T01:46:41.081Z,-7.20
2019-01-21T01:49:11.006Z,-7.43
2019-01-21T01:51:38.451Z,-7.35
2019-01-21T01:54:05.859Z,-7.31
2019-01-21T01:56:33.416Z,-7.31
2019-01-21T01:59:00.830Z,-7.80
2019-01-21T02:01:28.486Z,-7.80
2019-01-21T02:03:55.902Z,-7.78
2019-01-21T02:06:23.691Z,-7.78
2019-01-21T02:08:51.107Z,-7.61
2019-01-21T02:11:18.552Z,-7.54
2019-01-21T02:13:45.960Z,-7.54
2019-01-21T02:16:13.431Z,-7.49
2019-01-21T02:18:40.841Z,-7.28
2019-01-21T02:21:08.581Z,-7.27
2019-01-21T02:23:37.250Z,-7.45
2019-01-21T02:26:09.096Z,-7.45
2019-01-21T02:28:49.281Z,-7.70
2019-01-21T02:31:54.532Z,-7.76
2019-01-21T02:34:33.651Z,-7.76
2019-01-21T02:37:43.658Z,-7.63
2019-01-21T02:40:46.036Z,-7.41
2019-01-21T02:43:56.601Z,-7.37
2019-01-21T02:46:59.066Z,-7.37
2019-01-21T02:50:06.010Z,-7.37
2019-01-21T02:53:39.587Z,-7.34
2019-01-21T02:56:50.761Z,-7.94
2019-01-21T03:00:01.358Z,-7.76
2019-01-21T03:03:10.317Z,-7.76
2019-01-21T03:06:01.753Z,-7.76
2019-01-21T03:09:00.291Z,-7.73
2019-01-21T03:12:18.291Z,-7.68
2019-01-21T03:15:24.286Z,-7.73
2019-01-21T03:18:32.577Z,-8.04
2019-01-21T03:21:23.792Z,-7.92
2019-01-21T03:24:19.447Z,-7.86
2019-01-21T03:27:36.196Z,-7.90
2019-01-21T03:30:51.689Z,-8.10
2019-01-21T03:33:58.578Z,-8.10
2019-01-21T03:36:58.629Z,-8.08
2019-01-21T03:39:53.022Z,-8.08
2019-01-21T03:42:34.172Z,-8.17
2019-01-21T03:45:58.565Z,-8.04
2019-01-21T03:48:32.043Z,-7.97
2019-01-21T03:51:29.689Z,-7.97
2019-01-21T03:54:46.077Z,-7.80
2019-01-21T03:57:50.895Z,-7.78
2019-01-21T04:00:33.648Z,-7.78
2019-01-21T04:03:36.831Z,-7.93
2019-01-21T04:06:15.757Z,-8.09
2019-01-21T04:09:20.607Z,-7.84
2019-01-21T04:12:28.862Z,-7.84
2019-01-21T04:15:55.876Z,-8.04
2019-01-21T04:19:01.337Z,-8.04
2019-01-21T04:22:15.416Z,-7.90
2019-01-21T04:25:13.080Z,-7.86
2019-01-21T04:28:13.321Z,-7.88
2019-01-21T04:30:55.643Z,-7.96
2019-01-21T04:34:00.648Z,-7.96
2019-01-21T04:37:02.384Z,-7.98
2019-01-21T04:40:16.852Z,-8.07
2019-01-21T04:43:21.866Z,-8.05
2019-01-21T04:46:14.107Z,-8.05
2019-01-21T04:49:20.380Z,-8.03
2019-01-21T04:52:21.633Z,-8.17
2019-01-21T04:55:30.692Z,-8.17
2019-01-21T04:58:26.380Z,-8.13
2019-01-21T05:01:34.297Z,-8.22
2019-01-21T05:04:31.124Z,-8.32
2019-01-21T05:07:54.413Z,-8.57
2019-01-21T05:10:47.863Z,-8.27
2019-01-21T05:14:02.576Z,-8.40
2019-01-21T05:17:13.967Z,-8.22
2019-01-21T05:20:06.276Z,-8.26
2019-01-21T05:23:13.291Z,-8.49
2019-01-21T05:26:12.537Z,-8.49
2019-01-21T05:29:36.928Z,-8.56
2019-01-21T05:32:41.620Z,-8.40
2019-01-21T05:35:47.452Z,-8.40
2019-01-21T05:38:46.806Z,-8.13
2019-01-21T05:42:05.444Z,-7.74
2019-01-21T05:45:11.867Z,-7.42
2019-01-21T05:48:26.731Z,-7.43
2019-01-21T05:51:37.311Z,-7.43
2019-01-21T05:54:42.632Z,-7.33
2019-01-21T05:58:09.447Z,-7.34
2019-01-21T06:01:26.639Z,-7.24
2019-01-21T06:04:49.306Z,-7.20
2019-01-21T06:08:01.124Z,-7.15
2019-01-21T06:10:35.078Z,-7.05
2019-01-21T06:13:39.914Z,-7.04
2019-01-21T06:16:35.222Z,-6.96
2019-01-21T06:19:28.791Z,-6.97
2019-01-21T06:22:23.045Z,-6.98
2019-01-21T06:25:10.063Z,-6.99
2019-01-21T06:28:19.341Z,-6.95
2019-01-21T06:31:29.557Z,-6.92
2019-01-21T06:34:39.153Z,-6.89
2019-01-21T06:37:28.796Z,-6.87
2019-01-21T06:40:36.661Z,-6.88
2019-01-21T06:43:54.641Z,-6.85
2019-01-21T06:46:50.776Z,-6.80
2019-01-21T06:49:59.941Z,-6.85
2019-01-21T06:53:07.551Z,-6.78
2019-01-21T06:56:19.576Z,-6.78
2019-01-21T06:59:37.896Z,-6.82
2019-01-21T07:02:16.031Z,-6.84
2019-01-21T07:05:23.486Z,-6.77
2019-01-21T07:08:16.637Z,-6.76
2019-01-21T07:11:31.897Z,-6.78
2019-01-21T07:14:23.711Z,-6.75
2019-01-21T07:17:10.957Z,-6.79
2019-01-21T07:20:25.500Z,-6.79
2019-01-21T07:23:40.641Z,-6.81
2019-01-21T07:26:34.141Z,-6.75
2019-01-21T07:29:32.557Z,-6.71
2019-01-21T07:32:38.921Z,-6.68
2019-01-21T07:35:47.206Z,-6.73
2019-01-21T07:38:42.636Z,-6.63
2019-01-21T07:41:23.186Z,-6.53
2019-01-21T07:44:10.394Z,-6.29
2019-01-21T07:47:01.891Z,-5.34
2019-01-21T07:50:19.291Z,-5.34
2019-01-21T07:53:23.106Z,-5.08
2019-01-21T07:56:27.979Z,-4.41
2019-01-21T07:59:32.863Z,-4.09
2019-01-21T08:03:16.820Z,-3.92
2019-01-21T08:05:56.856Z,-3.35
2019-01-21T08:09:00.164Z,-2.82
2019-01-21T08:12:03.912Z,-2.70
2019-01-21T08:15:02.233Z,-2.85
2019-01-21T08:17:38.806Z,-3.24
2019-01-21T08:20:43.548Z,-3.50
2019-01-21T08:23:58.762Z,-3.41
2019-01-21T08:27:13.736Z,-3.65
2019-01-21T08:30:25.946Z,-3.84
2019-01-21T08:33:22.438Z,-3.81
2019-01-21T08:36:42.952Z,-3.81
2019-01-21T08:39:39.691Z,-4.07
2019-01-21T08:42:51.090Z,-4.05
2019-01-21T08:45:43.161Z,-4.09
2019-01-21T08:48:44.043Z,-4.33
2019-01-21T08:51:58.978Z,-4.10
2019-01-21T08:54:42.740Z,-4.14
2019-01-21T08:58:13.364Z,-4.09
2019-01-21T09:01:18.511Z,-4.42
2019-01-21T09:04:28.060Z,-4.38
2019-01-21T09:07:26.841Z,-4.43
2019-01-21T09:10:14.911Z,-4.32
2019-01-21T09:13:08.397Z,-4.24
2019-01-21T09:16:13.444Z,-4.29
2019-01-21T09:19:28.011Z,-4.27
2019-01-21T09:22:46.401Z,-4.15
2019-01-21T09:25:48.159Z,-4.10
2019-01-21T09:28:42.721Z,-3.96
2019-01-21T09:31:52.030Z,-3.64
2019-01-21T09:34:52.333Z,-3.38
2019-01-21T09:37:53.146Z,-3.37
2019-01-21T09:41:20.136Z,-3.36
2019-01-21T09:44:02.710Z,-3.30
2019-01-21T09:46:49.914Z,-3.59
2019-01-21T09:49:18.400Z,-3.46
2019-01-21T09:52:08.152Z,-3.35
2019-01-21T09:54:38.366Z,-3.24
2019-01-21T09:57:07.306Z,-3.21
2019-01-21T09:59:35.067Z,-3.17
2019-01-21T10:02:09.287Z,-2.98
2019-01-21T10:04:46.645Z,-2.78
2019-01-21T10:07:38.811Z,-2.66
2019-01-21T10:10:33.737Z,-2.36
2019-01-21T10:13:57.376Z,-2.37
2019-01-21T10:17:01.982Z,-2.22
2019-01-21T10:19:58.356Z,-2.14
2019-01-21T10:23:28.902Z,-2.16
2019-01-21T10:26:27.830Z,-2.08
2019-01-21T10:29:39.397Z,-1.99
2019-01-21T10:32:51.386Z,-1.81
2019-01-21T10:36:03.353Z,-1.86
2019-01-21T10:39:07.446Z,-1.72
2019-01-21T10:41:49.832Z,-1.44
2019-01-21T10:44:26.221Z,-1.44
2019-01-21T10:47:13.186Z,-1.37
2019-01-21T10:50:00.172Z,-1.10
2019-01-21T10:53:12.207Z,-1.17
2019-01-21T10:56:02.386Z,-1.18
2019-01-21T10:59:10.292Z,-0.96
2019-01-21T11:02:04.698Z,-0.87
2019-01-21T11:04:57.303Z,-0.85
2019-01-21T11:08:05.751Z,-0.71
2019-01-21T11:11:02.616Z,-0.55
2019-01-21T11:14:29.772Z,-0.53
2019-01-21T11:17:38.246Z,-0.54
2019-01-21T11:20:31.791Z,-0.47
2019-01-21T11:23:11.611Z,-0.64
2019-01-21T11:26:31.929Z,-0.57
2019-01-21T11:29:50.102Z,-0.58
2019-01-21T11:32:59.321Z,-0.46
2019-01-21T11:35:48.836Z,-0.33
2019-01-21T11:38:47.686Z,-0.19
2019-01-21T11:41:28.127Z,0.00
2019-01-21T11:44:45.387Z,0.19
2019-01-21T11:47:21.466Z,0.21
2019-01-21T11:50:11.232Z,0.54
2019-01-21T11:53:00.841Z,0.31
2019-01-21T11:55:46.121Z,0.55
2019-01-21T11:58:54.322Z,0.42
2019-01-21T12:02:05.132Z,0.41
2019-01-21T12:05:23.311Z,0.31
2019-01-21T12:08:47.846Z,0.03
2019-01-21T12:11:42.241Z,-0.01
2019-01-21T12:15:00.617Z,0.05
2019-01-21T12:17:50.067Z,-0.03
2019-01-21T12:21:01.832Z,0.08
2019-01-21T12:24:06.556Z,0.03
2019-01-21T12:27:11.877Z,-0.09
2019-01-21T12:30:15.088Z,-0.09
2019-01-21T12:33:11.776Z,-0.13
2019-01-21T12:36:09.966Z,-0.12
2019-01-21T12:39:14.472Z,-0.15
2019-01-21T12:42:12.806Z,-0.15
2019-01-21T12:45:29.427Z,-0.21
2019-01-21T12:48:34.287Z,-0.04
2019-01-21T12:51:47.982Z,-0.10
2019-01-21T12:54:58.901Z,-0.02
2019-01-21T12:58:09.217Z,0.02
2019-01-21T13:01:16.526Z,0.10
2019-01-21T13:04:11.316Z,0.15
2019-01-21T13:07:20.961Z,0.20
2019-01-21T13:10:32.801Z,0.25
2019-01-21T13:13:51.325Z,0.19
2019-01-21T13:16:42.625Z,0.25
2019-01-21T13:19:43.485Z,0.25
2019-01-21T13:23:03.418Z,0.15
2019-01-21T13:25:58.989Z,0.26
2019-01-21T13:28:57.995Z,0.22
2019-01-21T13:32:03.108Z,0.21
2019-01-21T13:35:01.130Z,0.30
2019-01-21T13:38:28.408Z,0.29
2019-01-21T13:41:19.878Z,0.29
2019-01-21T13:44:26.175Z,0.14
2019-01-21T13:47:43.656Z,0.24
2019-01-21T13:50:45.975Z,0.21
2019-01-21T13:53:49.955Z,0.19
2019-01-21T13:56:46.796Z,0.11
2019-01-21T13:59:36.971Z,-0.04
2019-01-21T14:02:55.570Z,-0.12
2019-01-21T14:06:06.324Z,-0.07
2019-01-21T14:09:11.185Z,-0.09
2019-01-21T14:11:59.237Z,-0.06
2019-01-21T14:14:37.332Z,0.05
2019-01-21T14:17:41.452Z,0.04
2019-01-21T14:20:20.203Z,-0.08
2019-01-21T14:23:17.185Z,-0.02
2019-01-21T14:26:44.490Z,-0.01
2019-01-21T14:29:37.640Z,-0.02
2019-01-21T14:32:51.925Z,0.05
2019-01-21T14:36:14.797Z,0.00
2019-01-21T14:39:14.520Z,-0.12
2019-01-21T14:42:32.319Z,-0.25
2019-01-21T14:45:34.551Z,-0.30
2019-01-21T14:48:39.521Z,-0.34
2019-01-21T14:51:38.456Z,-0.43
2019-01-21T14:54:40.689Z,-0.51
2019-01-21T14:57:49.745Z,-0.54
2019-01-21T15:00:45.734Z,-0.63
2019-01-21T15:03:54.955Z,-0.63
2019-01-21T15:06:57.691Z,-0.73
2019-01-21T15:10:17.259Z,-0.70
2019-01-21T15:13:16.445Z,-0.72
2019-01-21T15:16:27.548Z,-0.79
2019-01-21T15:19:06.021Z,-0.87
2019-01-21T15:21:56.599Z,-0.87
2019-01-21T15:25:03.169Z,-1.01
2019-01-21T15:28:23.751Z,-1.12
2019-01-21T15:31:38.783Z,-1.12
2019-01-21T15:34:48.385Z,-1.20
2019-01-21T15:37:41.450Z,-1.37
2019-01-21T15:41:02.820Z,-1.37
2019-01-21T15:44:07.838Z,-1.43
2019-01-21T15:47:25.612Z,-1.45
2019-01-21T15:50:26.502Z,-1.39
2019-01-21T15:53:14.651Z,-1.45
2019-01-21T15:56:15.431Z,-1.57
2019-01-21T15:59:12.158Z,-1.66
2019-01-21T16:02:11.855Z,-1.71
2019-01-21T16:04:59.142Z,-1.83
2019-01-21T16:08:08.690Z,-1.83
2019-01-21T16:11:22.868Z,-1.96
2019-01-21T16:14:00.965Z,-2.03
2019-01-21T16:16:52.878Z,-2.06
2019-01-21T16:19:43.294Z,-2.15
2019-01-21T16:22:48.515Z,-2.31
2019-01-21T16:26:00.442Z,-2.36
2019-01-21T16:29:25.010Z,-2.32
2019-01-21T16:32:06.079Z,-2.34
2019-01-21T16:34:59.499Z,-2.29
2019-01-21T16:38:16.272Z,-2.29
2019-01-21T16:41:07.890Z,-2.35
2019-01-21T16:43:35.454Z,-2.30
2019-01-21T16:46:02.990Z,-2.32
2019-01-21T16:48:30.476Z,-2.41
2019-01-21T16:50:57.885Z,-2.46
2019-01-21T16:53:25.344Z,-2.47
2019-01-21T16:55:52.780Z,-2.40
2019-01-21T16:58:20.256Z,-2.44
2019-01-21T17:00:47.677Z,-2.59
2019-01-21T17:03:15.155Z,-2.70
2019-01-21T17:05:42.885Z,-2.70
2019-01-21T17:08:10.352Z,-2.66
2019-01-21T17:10:39.349Z,-2.57
2019-01-21T17:13:06.880Z,-2.61
2019-01-21T17:15:34.341Z,-2.68
2019-01-21T17:18:01.758Z,-2.78
2019-01-21T17:20:29.241Z,-2.87
2019-01-21T17:22:56.620Z,-2.90
2019-01-21T17:25:24.100Z,-2.94
2019-01-21T17:27:51.490Z,-2.91
2019-01-21T17:30:19.017Z,-2.99
2019-01-21T17:32:46.451Z,-3.01
2019-01-21T17:35:14.198Z,-3.07
2019-01-21T17:37:41.640Z,-3.13
2019-01-21T17:40:11.215Z,-3.26
2019-01-21T17:42:38.716Z,-3.20
2019-01-21T17:45:09.756Z,-3.18
2019-01-21T17:47:37.541Z,-2.93
2019-01-21T17:50:06.240Z,-2.83
2019-01-21T17:52:33.686Z,-2.69
2019-01-21T17:55:01.131Z,-2.55
2019-01-21T17:57:28.591Z,-2.56
2019-01-21T17:59:56.066Z,-2.50
2019-01-21T18:02:23.615Z,-2.52
2019-01-21T18:04:51.181Z,-2.33
2019-01-21T18:07:18.745Z,-2.34
2019-01-21T18:09:47.515Z,-2.50
2019-01-21T18:12:14.975Z,-2.57
2019-01-21T18:14:42.966Z,-2.60
2019-01-21T18:17:10.515Z,-2.65
2019-01-21T18:19:38.135Z,-2.61
2019-01-21T18:22:05.777Z,-2.57
2019-01-21T18:24:33.740Z,-2.48
2019-01-21T18:27:01.358Z,-2.60
2019-01-21T18:29:28.936Z,-2.64
2019-01-21T18:31:56.501Z,-2.68
2019-01-21T18:34:24.081Z,-2.59
2019-01-21T18:36:51.866Z,-2.50
2019-01-21T18:39:19.440Z,-2.50
2019-01-21T18:41:47.095Z,-2.67
2019-01-21T18:44:14.912Z,-2.77
2019-01-21T18:46:42.906Z,-2.60
2019-01-21T18:49:10.620Z,-2.71
2019-01-21T18:51:38.446Z,-2.85
2019-01-21T18:54:06.085Z,-2.81
2019-01-21T18:56:33.762Z,-3.03
2019-01-21T18:59:01.510Z,-2.89
2019-01-21T19:01:30.415Z,-2.87
2019-01-21T19:03:58.200Z,-3.01
2019-01-21T19:06:26.111Z,-3.26
2019-01-21T19:08:59.995Z,-3.20
2019-01-21T19:11:27.980Z,-3.13
2019-01-21T19:13:55.966Z,-3.16
2019-01-21T19:16:23.836Z,-3.23
2019-01-21T19:18:51.586Z,-3.16
2019-01-21T19:21:19.536Z,-3.06
2019-01-21T19:23:47.303Z,-3.00
2019-01-21T19:26:15.300Z,-2.98
2019-01-21T19:28:42.991Z,-2.96
2019-01-21T19:31:11.006Z,-2.84
2019-01-21T19:33:38.785Z,-3.18
2019-01-21T19:36:06.641Z,-3.16
2019-01-21T19:38:34.418Z,-3.12
2019-01-21T19:41:02.211Z,-3.12
2019-01-21T19:43:30.110Z,-3.07
2019-01-21T19:45:58.165Z,-3.24
2019-01-21T19:48:26.136Z,-3.25
2019-01-21T19:51:00.247Z,-3.01
2019-01-21T19:53:40.807Z,-2.89
2019-01-21T19:56:14.443Z,-2.90
2019-01-21T19:58:43.869Z,-2.88
2019-01-21T20:01:11.846Z,-3.01
2019-01-21T20:03:39.790Z,-3.02
2019-01-21T20:06:10.160Z,-3.04
2019-01-21T20:08:42.380Z,-3.05
2019-01-21T20:11:10.878Z,-3.16
2019-01-21T20:13:40.244Z,-3.22
2019-01-21T20:16:14.354Z,-3.17
2019-01-21T20:18:42.465Z,-3.08
2019-01-21T20:21:12.969Z,-3.05
2019-01-21T20:23:41.190Z,-3.07
2019-01-21T20:26:12.311Z,-3.08
2019-01-21T20:28:43.324Z,-3.06
2019-01-21T20:31:11.425Z,-2.95
2019-01-21T20:33:39.185Z,-2.88
2019-01-21T20:36:10.545Z,-3.16
2019-01-21T20:38:38.824Z,-3.18
2019-01-21T20:41:09.650Z,-3.09
2019-01-21T20:43:41.980Z,-3.22
2019-01-21T20:46:25.944Z,-3.14
2019-01-21T20:49:02.398Z,-3.22
2019-01-21T20:51:39.859Z,-3.10
2019-01-21T20:54:22.067Z,-3.00
2019-01-21T20:56:56.720Z,-2.94
2019-01-21T20:59:40.119Z,-2.86
2019-01-21T21:02:10.344Z,-2.77
2019-01-21T21:04:38.130Z,-2.67
2019-01-21T21:07:15.589Z,-2.69
2019-01-21T21:09:46.696Z,-2.66
2019-01-21T21:12:17.847Z,-2.66
2019-01-21T21:14:45.302Z,-2.78
2019-01-21T21:17:13.302Z,-2.95
2019-01-21T21:20:13.384Z,-2.80
2019-01-21T21:22:12.365Z,-2.96
2019-01-21T21:24:40.010Z,-3.01
2019-01-21T21:27:07.586Z,-3.12
2019-01-21T21:29:35.115Z,-3.03
2019-01-21T21:32:02.727Z,-2.97
2019-01-21T21:34:30.330Z,-3.03
2019-01-21T21:36:57.895Z,-3.09
2019-01-21T21:39:25.416Z,-3.23
2019-01-21T21:41:52.980Z,-3.33
2019-01-21T21:44:21.286Z,-3.33
2019-01-21T21:46:49.036Z,-3.11
2019-01-21T21:49:16.579Z,-3.27
2019-01-21T21:51:44.111Z,-3.16
2019-01-21T21:54:11.631Z,-3.15
2019-01-21T21:56:39.142Z,-3.20
2019-01-21T21:59:06.696Z,-3.16
2019-01-21T22:01:34.176Z,-3.12
2019-01-21T22:04:01.765Z,-3.21
2019-01-21T22:06:29.265Z,-3.29
2019-01-21T22:08:56.771Z,-3.48
2019-01-21T22:11:24.251Z,-3.77
2019-01-21T22:13:51.745Z,-3.96
2019-01-21T22:16:19.195Z,-4.00
2019-01-21T22:18:46.785Z,-4.08
2019-01-21T22:21:14.325Z,-4.03
2019-01-21T22:23:47.906Z,-3.88
2019-01-21T22:26:17.445Z,-3.94
2019-01-21T22:28:45.027Z,-3.83
2019-01-21T22:31:12.437Z,-3.96
2019-01-21T22:33:39.915Z,-3.96
2019-01-21T22:36:07.305Z,-4.01
2019-01-21T22:38:34.816Z,-3.92
2019-01-21T22:41:08.010Z,-4.08
2019-01-21T22:43:41.255Z,-4.27
2019-01-21T22:46:08.685Z,-4.29
2019-01-21T22:48:36.180Z,-4.18
2019-01-21T22:51:03.695Z,-4.17
2019-01-21T22:53:31.155Z,-4.20
2019-01-21T22:55:58.558Z,-4.32
2019-01-21T22:58:26.035Z,-4.03
2019-01-21T23:01:17.430Z,-4.02
2019-01-21T23:03:50.931Z,-4.15
2019-01-21T23:06:18.458Z,-4.34
2019-01-21T23:08:46.020Z,-4.36
2019-01-21T23:11:13.426Z,-4.44
2019-01-21T23:13:40.862Z,-4.44
2019-01-21T23:16:08.275Z,-4.66
2019-01-21T23:18:35.962Z,-4.69
2019-01-21T23:21:03.515Z,-4.70
2019-01-21T23:23:30.936Z,-4.84
2019-01-21T23:25:59.465Z,-4.99
2019-01-21T23:28:26.891Z,-4.92
2019-01-21T23:30:54.388Z,-4.92
2019-01-21T23:33:21.990Z,-5.03
2019-01-21T23:35:49.445Z,-4.98
2019-01-21T23:38:16.980Z,-4.94
2019-01-21T23:40:44.450Z,-5.02
2019-01-21T23:43:11.870Z,-5.03
2019-01-21T23:45:39.321Z,-5.12
2019-01-21T23:48:07.145Z,-5.26
2019-01-21T23:50:34.620Z,-5.18
2019-01-21T23:53:02.087Z,-5.39
2019-01-21T23:55:29.526Z,-5.34
2019-01-21T23:57:56.935Z,-5.27
